United B738 at Denver on Nov 17th 2018, runway excursion on vacating the runway

Last Update: November 18, 2018 / 15:19:24 GMT/Zulu time

Bookmark this article
Incident Facts

Date of incident
Nov 17, 2018

Classification
Incident

Airline
United

Flight number
UA-1941

Aircraft Registration
N87507

Aircraft Type
Boeing 737-800

ICAO Type Designator
B738

Airport ICAO Code
KDEN

A United Boeing 737-800, registration N87507 performing flight UA-1941 from Tucson,AZ to Denver,CO (USA), had landed on Denver's runway 35L and slowed to taxi speed. The aircraft turned into high speed turn off M6 but was not able to follow the turn radius and slid off coming to a stop ahead of the short stop line inside the runway protected area with the nose gear on soft ground north of the taxiway at 18:21L (01:21Z Nov 18th). The passengers disembarked through the rear left door and a mobile stair onto the taxiway and were bussed to the terminal.

Metars:
KDEN 180253Z 09005KT 1 1/4SM -SN OVC005 M06/M07 A3026 RMK AO2 SFC VIS 8 SLP275 P0000 60000 T10611072 51011 $=
KDEN 180204Z 09005KT 1 1/4SM -SN OVC004 M06/M07 A3025 RMK AO2 SFC VIS 9 P0000 T10611067 $=
KDEN 180203Z 09005KT 9SM -SN OVC004 M07/M07 A3025 RMK AO2 P0000 T10671067 $=
KDEN 180153Z 07006KT 9SM -SN SCT004 OVC007 M06/M07 A3025 RMK AO2 SNB09 SLP273 VIS N 3 P0000 T10611067 $=
KDEN 180053Z 08008KT 10SM OVC005 M06/M07 A3024 RMK AO2 SLP265 T10611072 $=
KDEN 172353Z 07008KT 10SM BKN008 OVC012 M06/M07 A3022 RMK AO2 FZDZE32 SLP256 P0000 60001 I1000 I6000 T10611072 11033 21061 53005 $=
KDEN 172340Z 07009KT 10SM OVC007 M06/M07 A3022 RMK AO2 FZDZE32 P0000 I1000 T10611072 $=
KDEN 172332Z 08008KT 1 1/2SM OVC007 M06/M07 A3021 RMK AO2 SFC VIS 10 FZDZE32 P0000 I1000 T10611072 $=
KDEN 172253Z 08009KT 1 1/2SM -FZDZ BKN007 OVC012 M06/M07 A3021 RMK AO2 SFC VIS 8 FZDZE06B49 SLP253 P0000 I1000 T10611072 $=
KDEN 172206Z 08010KT 1 1/2SM BKN006 OVC022 M06/M07 A3020 RMK AO2 SFC VIS 7 FZDZE06 P0000 I1000 T10611067 $=
Incident Facts

Date of incident
Nov 17, 2018

Classification
Incident

Airline
United

Flight number
UA-1941

Aircraft Registration
N87507

Aircraft Type
Boeing 737-800

ICAO Type Designator
B738

Airport ICAO Code
KDEN

This article is published under license from Avherald.com. © of text by Avherald.com.
Article source

You can read 4 more free articles without a subscription.

Subscribe now and continue reading without any limits!

Are you a subscriber?
Login
Subscribe

Read unlimited articles and receive our daily update briefing. Gain better insights into what is happening in commercial aviation safety.

Free newsletter

Want to know more and stay ahead? Get our free weekly newsletter and join 4854 existing subscribers.

By subscribing, you accept our terms and conditions and confirm that you've read our privacy policy.

Send tip

Support AeroInside by sending a small tip amount.

Related articles

Newest articles

Subscribe today

Are you researching aviation incidents? Get access to AeroInside Insights, unlimited read access and receive the daily newsletter.

Pick your plan and subscribe

Partner

Blockaviation logo

A new way to document and demonstrate airworthiness compliance and aircraft value. Find out more.

Virtual Speech logo

Train yourself online in VR with the special course for aviation: "Crisis Communications: Airlines". Find out more.

Get updates

Never miss an article from AeroInside. Subscribe to our free weekly newsletter and join 4854 existing subscribers.

By subscribing, you accept our terms and conditions and that you've read our privacy policy.

AeroInside Blog
Popular aircraft
Airbus A320
Boeing 737-800
Boeing 737-800 MAX
Popular airlines
American Airlines
United
Delta
Air Canada
Lufthansa
British Airways